Time;durP1;ratioP1;P1;durP2;ratioP2;P2;SDS_P1;SDS_P2;PMS_P1;PMS_P2;Temp;Humidity;BMP_temperature;BMP_pressure;BME280_temperature;BME280_humidity;BME280_pressure;Samples;Min_cycle;Max_cycle;Signal;HPM_P1;HPM_P2
2022/12/20 00:00:36;;;;;;;;;;;;;;;;;;7364283;19;1846;-65
2022/12/20 00:03:05;;;;;;;;;;;;;;;;;;7365474;19;799;-70
2022/12/20 00:05:33;;;;;;;;;;;;;;;;;;7365398;19;810;-65
2022/12/20 00:08:01;;;;;;;;;;;;;;;;;;7362007;19;1353;-65
2022/12/20 00:10:29;;;;;;;;;;;;;;;;;;7364797;19;870;-65
2022/12/20 00:12:57;;;;;;;;;;;;;;;;;;7364842;19;795;-65
2022/12/20 00:15:25;;;;;;;;;;;;;;;;;;7365290;19;863;-65
2022/12/20 00:17:53;;;;;;;;;;;;;;;;;;7363325;19;1369;-65
2022/12/20 00:20:22;;;;;;;;;;;;;;;;;;7363276;19;1846;-65
2022/12/20 00:22:50;;;;;;;;;;;;;;;;;;7364301;19;758;-65
2022/12/20 00:25:19;;;;;;;;;;;;;;;;;;7364564;19;945;-65
2022/12/20 00:27:47;;;;;;;;;;;;;;;;;;7371879;19;2194;-65
2022/12/20 00:30:15;;;;;;;;;;;;;;;;;;7370978;19;773;-65
2022/12/20 00:32:44;;;;;;;;;;;;;;;;;;7370998;19;803;-65
2022/12/20 00:35:12;;;;;;;;;;;;;;;;;;7369411;19;858;-65
2022/12/20 00:37:40;;;;;;;;;;;;;;;;;;7371323;19;1902;-65
2022/12/20 00:40:08;;;;;;;;;;;;;;;;;;7368608;19;1862;-65
2022/12/20 00:42:36;;;;;;;;;;;;;;;;;;7369365;19;850;-65
2022/12/20 00:45:06;;;;;;;;;;;;;;;;;;7370610;19;915;-65
2022/12/20 00:47:34;;;;;;;;;;;;;;;;;;7370619;19;1751;-65
2022/12/20 00:50:02;;;;;;;;;;;;;;;;;;7369401;19;790;-66
2022/12/20 00:52:30;;;;;;;;;;;;;;;;;;7370745;19;885;-67
2022/12/20 00:54:58;;;;;;;;;;;;;;;;;;7369915;19;1916;-65
2022/12/20 00:57:27;;;;;;;;;;;;;;;;;;7370008;19;1294;-65
2022/12/20 00:59:55;;;;;;;;;;;;;;;;;;7368012;19;1838;-65
2022/12/20 01:02:23;;;;;;;;;;;;;;;;;;7370761;19;874;-66
2022/12/20 01:04:51;;;;;;;;;;;;;;;;;;7369982;19;1839;-65
2022/12/20 01:07:22;;;;;;;;;;;;;;;;;;7370347;19;815;-64
2022/12/20 01:09:51;;;;;;;;;;;;;;;;;;7367729;19;1040;-65
2022/12/20 01:12:19;;;;;;;;;;;;;;;;;;7370176;19;831;-65
2022/12/20 01:14:47;;;;;;;;;;;;;;;;;;7369832;19;1753;-65
2022/12/20 01:17:15;;;;;;;;;;;;;;;;;;7369703;19;827;-65
2022/12/20 01:19:44;;;;;;;;;;;;;;;;;;7366873;19;1843;-65
2022/12/20 01:22:12;;;;;;;;;;;;;;;;;;7372925;19;1838;-65
2022/12/20 01:24:40;;;;;;;;;;;;;;;;;;7370197;19;1772;-65
2022/12/20 01:27:09;;;;;;;;;;;;;;;;;;7369523;19;850;-66
2022/12/20 01:29:37;;;;;;;;;;;;;;;;;;7368257;19;1903;-65
2022/12/20 01:32:05;;;;;;;;;;;;;;;;;;7368841;19;847;-65
2022/12/20 01:34:33;;;;;;;;;;;;;;;;;;7369769;19;1837;-66
2022/12/20 01:37:01;;;;;;;;;;;;;;;;;;7367994;19;808;-65
2022/12/20 01:39:29;;;;;;;;;;;;;;;;;;7364992;19;1306;-65
2022/12/20 01:41:58;;;;;;;;;;;;;;;;;;7367008;19;1857;-68
2022/12/20 01:44:26;;;;;;;;;;;;;;;;;;7369882;19;1862;-66
2022/12/20 01:46:54;;;;;;;;;;;;;;;;;;7369528;19;800;-66
2022/12/20 01:49:23;;;;;;;;;;;;;;;;;;7366361;19;1940;-64
2022/12/20 01:51:51;;;;;;;;;;;;;;;;;;7368764;19;952;-64
2022/12/20 01:54:19;;;;;;;;;;;;;;;;;;7368811;19;824;-63
2022/12/20 01:56:47;;;;;;;;;;;;;;;;;;7370588;19;1853;-63
2022/12/20 01:59:16;;;;;;;;;;;;;;;;;;7365895;19;1208;-63
2022/12/20 02:01:44;;;;;;;;;;;;;;;;;;7367847;19;1841;-63
2022/12/20 02:04:12;;;;;;;;;;;;;;;;;;7368323;19;819;-64
2022/12/20 02:06:41;;;;;;;;;;;;;;;;;;7371450;19;1847;-65
2022/12/20 02:09:09;;;;;;;;;;;;;;;;;;7366601;19;1388;-65
2022/12/20 02:11:37;;;;;;;;;;;;;;;;;;7369922;19;878;-65
2022/12/20 02:14:06;;;;;;;;;;;;;;;;;;7367669;19;849;-65
2022/12/20 02:16:34;;;;;;;;;;;;;;;;;;7373266;19;1905;-65
2022/12/20 02:19:02;;;;;;;;;;;;;;;;;;7366314;19;1832;-64
2022/12/20 02:21:30;;;;;;;;;;;;;;;;;;7366429;19;1843;-65
2022/12/20 02:23:58;;;;;;;;;;;;;;;;;;7366955;19;846;-65
2022/12/20 02:26:26;;;;;;;;;;;;;;;;;;7373001;19;1645;-65
2022/12/20 02:28:54;;;;;;;;;;;;;;;;;;7364873;19;1349;-65
2022/12/20 02:31:23;;;;;;;;;;;;;;;;;;7368795;19;818;-64
2022/12/20 02:33:51;;;;;;;;;;;;;;;;;;7366674;19;861;-64
2022/12/20 02:36:19;;;;;;;;;;;;;;;;;;7371866;19;1831;-65
2022/12/20 02:38:52;;;;;;;;;;;;;;;;;;7363281;19;1310;-65
2022/12/20 02:41:20;;;;;;;;;;;;;;;;;;7364955;19;1829;-65
2022/12/20 02:46:29;;;;;;;;;;;;;;;;;;7369637;19;1852;-64
2022/12/20 02:48:57;;;;;;;;;;;;;;;;;;7361986;19;1353;-65
2022/12/20 02:51:25;;;;;;;;;;;;;;;;;;7368544;19;1834;-65
2022/12/20 02:53:53;;;;;;;;;;;;;;;;;;7367473;19;811;-65
2022/12/20 02:56:22;;;;;;;;;;;;;;;;;;7369631;19;1490;-65
2022/12/20 02:58:50;;;;;;;;;;;;;;;;;;7362841;19;1306;-66
2022/12/20 03:01:18;;;;;;;;;;;;;;;;;;7364365;19;1845;-65
2022/12/20 03:03:46;;;;;;;;;;;;;;;;;;7366347;19;803;-65
2022/12/20 03:06:14;;;;;;;;;;;;;;;;;;7369051;19;1840;-65
2022/12/20 03:08:42;;;;;;;;;;;;;;;;;;7365890;19;1991;-66
2022/12/20 03:11:11;;;;;;;;;;;;;;;;;;7369815;19;2230;-65
2022/12/20 03:13:39;;;;;;;;;;;;;;;;;;7365833;19;811;-64
2022/12/20 03:16:10;;;;;;;;;;;;;;;;;;7368673;19;1916;-65
2022/12/20 03:18:38;;;;;;;;;;;;;;;;;;7362721;19;1343;-65
2022/12/20 03:21:07;;;;;;;;;;;;;;;;;;7363920;19;1869;-65
2022/12/20 03:23:35;;;;;;;;;;;;;;;;;;7365504;19;862;-64
2022/12/20 03:26:03;;;;;;;;;;;;;;;;;;7368056;19;1802;-64
2022/12/20 03:28:43;;;;;;;;;;;;;;;;;;7363482;19;1381;-64
2022/12/20 03:31:14;;;;;;;;;;;;;;;;;;7365134;19;771;-63
2022/12/20 03:33:47;;;;;;;;;;;;;;;;;;7365108;19;783;-62
2022/12/20 03:36:15;;;;;;;;;;;;;;;;;;7367647;19;1883;-65
2022/12/20 03:38:43;;;;;;;;;;;;;;;;;;7366564;19;1907;-65
2022/12/20 03:41:12;;;;;;;;;;;;;;;;;;7364749;19;1842;-64
2022/12/20 03:43:40;;;;;;;;;;;;;;;;;;7365159;19;875;-65
2022/12/20 03:46:08;;;;;;;;;;;;;;;;;;7368119;19;1852;-65
2022/12/20 03:48:39;;;;;;;;;;;;;;;;;;7363911;19;1389;-65
2022/12/20 03:51:09;;;;;;;;;;;;;;;;;;7363319;19;1246;-64
2022/12/20 03:53:37;;;;;;;;;;;;;;;;;;7363801;19;861;-64
2022/12/20 03:56:05;;;;;;;;;;;;;;;;;;7368717;19;1724;-64
2022/12/20 03:58:33;;;;;;;;;;;;;;;;;;7362255;19;1358;-65
2022/12/20 04:01:01;;;;;;;;;;;;;;;;;;7365957;19;1877;-65
2022/12/20 04:03:42;;;;;;;;;;;;;;;;;;7370648;19;909;-64
2022/12/20 04:06:10;;;;;;;;;;;;;;;;;;7373898;19;1897;-64
2022/12/20 04:08:38;;;;;;;;;;;;;;;;;;7369038;19;1275;-65
2022/12/20 04:11:19;;;;;;;;;;;;;;;;;;7371180;19;857;-65
2022/12/20 04:14:16;;;;;;;;;;;;;;;;;;7371237;19;1215;-65
2022/12/20 04:16:45;;;;;;;;;;;;;;;;;;7374552;19;1891;-65
2022/12/20 04:19:15;;;;;;;;;;;;;;;;;;7368360;19;1989;-65
2022/12/20 04:21:46;;;;;;;;;;;;;;;;;;7369617;19;1853;-64
2022/12/20 04:24:16;;;;;;;;;;;;;;;;;;7369887;19;812;-64
2022/12/20 04:26:55;;;;;;;;;;;;;;;;;;7374046;19;1825;-64
2022/12/20 04:29:23;;;;;;;;;;;;;;;;;;7367226;19;1353;-65
2022/12/20 04:31:51;;;;;;;;;;;;;;;;;;7370113;19;746;-65
2022/12/20 04:34:20;;;;;;;;;;;;;;;;;;7369830;19;798;-65
2022/12/20 04:36:48;;;;;;;;;;;;;;;;;;7373611;19;1850;-65
2022/12/20 04:39:25;;;;;;;;;;;;;;;;;;7367414;19;1404;-65
2022/12/20 04:42:12;;;;;;;;;;;;;;;;;;7370758;19;1842;-65
2022/12/20 04:44:40;;;;;;;;;;;;;;;;;;7369770;19;862;-65
2022/12/20 04:47:09;;;;;;;;;;;;;;;;;;7374129;19;1814;-65
2022/12/20 04:49:37;;;;;;;;;;;;;;;;;;7366911;19;1393;-64
2022/12/20 04:54:46;;;;;;;;;;;;;;;;;;7368788;19;1825;-65
2022/12/20 04:57:17;;;;;;;;;;;;;;;;;;7369968;19;784;-64
2022/12/20 04:59:46;;;;;;;;;;;;;;;;;;7365530;19;1851;-65
2022/12/20 05:02:15;;;;;;;;;;;;;;;;;;7367765;19;1859;-65
2022/12/20 05:04:49;;;;;;;;;;;;;;;;;;7368749;19;1843;-64
2022/12/20 05:07:18;;;;;;;;;;;;;;;;;;7370092;19;775;-65
2022/12/20 05:09:52;;;;;;;;;;;;;;;;;;7368539;19;863;-64
2022/12/20 05:12:20;;;;;;;;;;;;;;;;;;7367917;19;1004;-64
2022/12/20 05:14:48;;;;;;;;;;;;;;;;;;7369650;19;1861;-65
2022/12/20 05:17:20;;;;;;;;;;;;;;;;;;7368824;19;786;-64
2022/12/20 05:19:48;;;;;;;;;;;;;;;;;;7366012;19;1342;-64
2022/12/20 05:27:46;;;;;;;;;;;;;;;;;;7367241;19;1228;-64
2022/12/20 05:30:15;;;;;;;;;;;;;;;;;;7369710;19;893;-64
2022/12/20 05:32:44;;;;;;;;;;;;;;;;;;7370300;19;927;-65
2022/12/20 05:35:13;;;;;;;;;;;;;;;;;;7369196;19;2273;-65
2022/12/20 05:37:41;;;;;;;;;;;;;;;;;;7369633;19;1782;-65
2022/12/20 05:40:16;;;;;;;;;;;;;;;;;;7369682;19;568;-65
2022/12/20 05:42:44;;;;;;;;;;;;;;;;;;7376328;19;1875;-65
2022/12/20 05:45:13;;;;;;;;;;;;;;;;;;7387370;19;1871;-66
2022/12/20 05:47:50;;;;;;;;;;;;;;;;;;7384457;19;1377;-65
2022/12/20 05:50:18;;;;;;;;;;;;;;;;;;7387221;19;766;-65
2022/12/20 05:53:06;;;;;;;;;;;;;;;;;;7390511;19;1031;-66
2022/12/20 05:55:34;;;;;;;;;;;;;;;;;;7390211;19;1717;-66
2022/12/20 05:58:02;;;;;;;;;;;;;;;;;;7387458;19;1295;-66
2022/12/20 06:00:47;;;;;;;;;;;;;;;;;;7387288;19;1055;-67
2022/12/20 06:03:15;;;;;;;;;;;;;;;;;;7385087;19;1803;-66
2022/12/20 06:05:44;;;;;;;;;;;;;;;;;;7391678;19;1610;-67
2022/12/20 06:08:15;;;;;;;;;;;;;;;;;;7386334;19;1267;-66
2022/12/20 06:10:44;;;;;;;;;;;;;;;;;;7387874;19;877;-66
2022/12/20 06:13:15;;;;;;;;;;;;;;;;;;7387803;19;718;-66
2022/12/20 06:15:43;;;;;;;;;;;;;;;;;;7386000;19;1899;-66
2022/12/20 06:18:11;;;;;;;;;;;;;;;;;;7369953;19;1322;-67
2022/12/20 06:20:40;;;;;;;;;;;;;;;;;;7371237;19;812;-66
2022/12/20 06:23:09;;;;;;;;;;;;;;;;;;7367059;19;1870;-66
2022/12/20 06:25:44;;;;;;;;;;;;;;;;;;7372824;19;1892;-66
2022/12/20 06:28:12;;;;;;;;;;;;;;;;;;7368917;19;1382;-66
2022/12/20 06:30:40;;;;;;;;;;;;;;;;;;7370455;19;889;-66
2022/12/20 06:33:14;;;;;;;;;;;;;;;;;;7371037;19;830;-66
2022/12/20 06:35:42;;;;;;;;;;;;;;;;;;7372468;19;1648;-66
2022/12/20 06:38:11;;;;;;;;;;;;;;;;;;7368657;19;1313;-66
2022/12/20 06:40:39;;;;;;;;;;;;;;;;;;7370046;19;923;-66
2022/12/20 06:43:07;;;;;;;;;;;;;;;;;;7367815;19;1857;-66
2022/12/20 06:45:35;;;;;;;;;;;;;;;;;;7370934;19;2163;-65
2022/12/20 06:48:03;;;;;;;;;;;;;;;;;;7366931;19;1277;-65
2022/12/20 06:50:34;;;;;;;;;;;;;;;;;;7368115;19;809;-65
2022/12/20 06:53:02;;;;;;;;;;;;;;;;;;7368499;19;1904;-65
2022/12/20 06:55:30;;;;;;;;;;;;;;;;;;7369445;19;2188;-65
2022/12/20 06:57:59;;;;;;;;;;;;;;;;;;7364556;19;1350;-65
2022/12/20 07:00:27;;;;;;;;;;;;;;;;;;7366725;19;1885;-65
2022/12/20 07:02:55;;;;;;;;;;;;;;;;;;7371205;19;1842;-65
2022/12/20 07:05:23;;;;;;;;;;;;;;;;;;7370132;19;825;-65
2022/12/20 07:07:52;;;;;;;;;;;;;;;;;;7366539;19;1223;-65
2022/12/20 07:10:20;;;;;;;;;;;;;;;;;;7368566;19;815;-65
2022/12/20 07:12:48;;;;;;;;;;;;;;;;;;7368470;19;858;-65
2022/12/20 07:15:16;;;;;;;;;;;;;;;;;;7367633;19;811;-64
2022/12/20 07:17:44;;;;;;;;;;;;;;;;;;7367954;19;1306;-64
2022/12/20 07:20:12;;;;;;;;;;;;;;;;;;7366764;19;844;-65
2022/12/20 07:22:40;;;;;;;;;;;;;;;;;;7367075;19;1838;-65
2022/12/20 07:25:09;;;;;;;;;;;;;;;;;;7368052;19;852;-65
2022/12/20 07:27:37;;;;;;;;;;;;;;;;;;7367660;19;1369;-65
2022/12/20 07:30:05;;;;;;;;;;;;;;;;;;7370641;19;1902;-65
2022/12/20 07:32:33;;;;;;;;;;;;;;;;;;7367888;19;787;-65
2022/12/20 07:35:02;;;;;;;;;;;;;;;;;;7371448;19;783;-66
2022/12/20 07:37:30;;;;;;;;;;;;;;;;;;7380446;19;1349;-65
2022/12/20 07:39:58;;;;;;;;;;;;;;;;;;7380606;19;780;-65
2022/12/20 07:42:27;;;;;;;;;;;;;;;;;;7381241;19;1845;-65
2022/12/20 07:44:55;;;;;;;;;;;;;;;;;;7380172;19;857;-65
2022/12/20 07:47:23;;;;;;;;;;;;;;;;;;7382675;19;811;-65
2022/12/20 07:49:51;;;;;;;;;;;;;;;;;;7377763;19;1430;-65
2022/12/20 07:52:19;;;;;;;;;;;;;;;;;;7381599;19;814;-65
2022/12/20 07:54:48;;;;;;;;;;;;;;;;;;7381758;19;831;-65
2022/12/20 07:57:16;;;;;;;;;;;;;;;;;;7383113;19;1845;-65
2022/12/20 07:59:44;;;;;;;;;;;;;;;;;;7377807;19;1336;-65
2022/12/20 08:02:13;;;;;;;;;;;;;;;;;;7379868;19;1838;-64
2022/12/20 08:04:41;;;;;;;;;;;;;;;;;;7381253;19;721;-65
2022/12/20 08:07:09;;;;;;;;;;;;;;;;;;7380303;19;820;-66
2022/12/20 08:09:37;;;;;;;;;;;;;;;;;;7376939;19;1286;-66
2022/12/20 08:12:05;;;;;;;;;;;;;;;;;;7380438;19;815;-66
2022/12/20 08:14:33;;;;;;;;;;;;;;;;;;7381064;19;882;-66
2022/12/20 08:17:02;;;;;;;;;;;;;;;;;;7379945;19;811;-66
2022/12/20 08:19:30;;;;;;;;;;;;;;;;;;7378340;19;1385;-66
2022/12/20 08:21:58;;;;;;;;;;;;;;;;;;7380155;19;1868;-67
2022/12/20 08:24:26;;;;;;;;;;;;;;;;;;7380510;19;1896;-70
2022/12/20 08:26:55;;;;;;;;;;;;;;;;;;7380447;19;808;-69
2022/12/20 08:29:23;;;;;;;;;;;;;;;;;;7378068;19;1341;-69
2022/12/20 08:31:51;;;;;;;;;;;;;;;;;;7384249;19;1825;-69
2022/12/20 08:34:20;;;;;;;;;;;;;;;;;;7380384;19;1672;-70
2022/12/20 08:36:48;;;;;;;;;;;;;;;;;;7380332;19;831;-70
2022/12/20 08:39:16;;;;;;;;;;;;;;;;;;7377859;19;1297;-69
2022/12/20 08:41:44;;;;;;;;;;;;;;;;;;7380325;19;854;-69
2022/12/20 08:44:12;;;;;;;;;;;;;;;;;;7381837;19;1845;-70
2022/12/20 08:46:40;;;;;;;;;;;;;;;;;;7375495;19;933;-69
2022/12/20 08:49:08;;;;;;;;;;;;;;;;;;7370744;19;1338;-69
2022/12/20 08:51:37;;;;;;;;;;;;;;;;;;7373184;19;798;-70
2022/12/20 08:54:05;;;;;;;;;;;;;;;;;;7371747;19;865;-70
2022/12/20 08:56:33;;;;;;;;;;;;;;;;;;7374532;19;851;-68
2022/12/20 08:59:01;;;;;;;;;;;;;;;;;;7373240;19;1854;-68
2022/12/20 09:01:32;;;;;;;;;;;;;;;;;;7373284;19;812;-69
2022/12/20 09:04:00;;;;;;;;;;;;;;;;;;7370153;19;1830;-68
2022/12/20 09:06:28;;;;;;;;;;;;;;;;;;7373345;19;807;-69
2022/12/20 09:08:59;;;;;;;;;;;;;;;;;;7371681;19;1263;-70
2022/12/20 09:11:27;;;;;;;;;;;;;;;;;;7374147;19;792;-68
2022/12/20 09:13:55;;;;;;;;;;;;;;;;;;7373504;19;745;-69
2022/12/20 09:16:23;;;;;;;;;;;;;;;;;;7372857;19;802;-69
2022/12/20 09:18:51;;;;;;;;;;;;;;;;;;7369649;19;1353;-69
2022/12/20 09:21:19;;;;;;;;;;;;;;;;;;7371440;19;842;-69
2022/12/20 09:23:48;;;;;;;;;;;;;;;;;;7368895;19;1849;-67
2022/12/20 09:26:16;;;;;;;;;;;;;;;;;;7371401;19;1889;-68
2022/12/20 09:28:44;;;;;;;;;;;;;;;;;;7368933;19;1325;-69
2022/12/20 09:31:12;;;;;;;;;;;;;;;;;;7370454;19;947;-68
2022/12/20 09:33:40;;;;;;;;;;;;;;;;;;7374659;19;1816;-70
2022/12/20 09:36:08;;;;;;;;;;;;;;;;;;7370013;19;818;-70
2022/12/20 09:38:37;;;;;;;;;;;;;;;;;;7369078;19;1282;-70
2022/12/20 09:41:05;;;;;;;;;;;;;;;;;;7371829;19;976;-72
2022/12/20 09:43:33;;;;;;;;;;;;;;;;;;7370062;19;1833;-70
2022/12/20 09:46:01;;;;;;;;;;;;;;;;;;7371209;19;784;-70
2022/12/20 09:48:29;;;;;;;;;;;;;;;;;;7368833;19;1321;-71
2022/12/20 09:50:57;;;;;;;;;;;;;;;;;;7371475;19;819;-70
2022/12/20 09:53:26;;;;;;;;;;;;;;;;;;7370567;19;863;-69
2022/12/20 09:55:54;;;;;;;;;;;;;;;;;;7375326;19;1625;-70
2022/12/20 09:58:22;;;;;;;;;;;;;;;;;;7365959;19;1271;-70
2022/12/20 10:00:50;;;;;;;;;;;;;;;;;;7369102;19;839;-68
2022/12/20 10:03:18;;;;;;;;;;;;;;;;;;7369944;19;1842;-69
2022/12/20 10:05:47;;;;;;;;;;;;;;;;;;7371412;19;850;-69
2022/12/20 10:08:16;;;;;;;;;;;;;;;;;;7370174;19;1318;-68
2022/12/20 10:10:44;;;;;;;;;;;;;;;;;;7371153;19;867;-68
2022/12/20 10:13:12;;;;;;;;;;;;;;;;;;7370062;19;843;-68
2022/12/20 10:15:40;;;;;;;;;;;;;;;;;;7369524;19;820;-69
2022/12/20 10:18:08;;;;;;;;;;;;;;;;;;7367438;19;1267;-71
2022/12/20 10:20:37;;;;;;;;;;;;;;;;;;7368700;19;811;-70
2022/12/20 10:23:05;;;;;;;;;;;;;;;;;;7370996;19;1845;-68
2022/12/20 10:25:33;;;;;;;;;;;;;;;;;;7371078;19;803;-68
2022/12/20 10:28:01;;;;;;;;;;;;;;;;;;7368923;19;1271;-68
2022/12/20 10:30:29;;;;;;;;;;;;;;;;;;7369319;19;794;-68
2022/12/20 10:32:58;;;;;;;;;;;;;;;;;;7371585;19;1745;-68
2022/12/20 10:35:26;;;;;;;;;;;;;;;;;;7363612;19;1406;-70
2022/12/20 10:37:54;;;;;;;;;;;;;;;;;;7369403;19;1437;-68
2022/12/20 10:40:22;;;;;;;;;;;;;;;;;;7372530;19;1057;-67
2022/12/20 10:42:51;;;;;;;;;;;;;;;;;;7372234;19;1838;-67
2022/12/20 10:45:19;;;;;;;;;;;;;;;;;;7371887;19;1311;-66
2022/12/20 10:47:47;;;;;;;;;;;;;;;;;;7368245;19;1346;-67
2022/12/20 10:50:15;;;;;;;;;;;;;;;;;;7371117;19;1668;-68
2022/12/20 10:52:43;;;;;;;;;;;;;;;;;;7370619;19;1088;-67
2022/12/20 10:55:12;;;;;;;;;;;;;;;;;;7373119;19;1241;-67
2022/12/20 10:57:40;;;;;;;;;;;;;;;;;;7366332;19;1282;-66
2022/12/20 11:00:09;;;;;;;;;;;;;;;;;;7367087;19;828;-68
2022/12/20 11:02:37;;;;;;;;;;;;;;;;;;7365219;19;1877;-68
2022/12/20 11:05:05;;;;;;;;;;;;;;;;;;7367977;19;795;-68
2022/12/20 11:07:34;;;;;;;;;;;;;;;;;;7367610;19;1286;-67
2022/12/20 11:10:02;;;;;;;;;;;;;;;;;;7365670;19;1861;-66
2022/12/20 11:12:31;;;;;;;;;;;;;;;;;;7368285;19;839;-67
2022/12/20 11:14:59;;;;;;;;;;;;;;;;;;7367493;19;796;-67
2022/12/20 11:17:27;;;;;;;;;;;;;;;;;;7366420;19;1042;-67
2022/12/20 11:19:55;;;;;;;;;;;;;;;;;;7365599;19;838;-68
2022/12/20 11:22:23;;;;;;;;;;;;;;;;;;7369495;19;779;-67
2022/12/20 11:24:52;;;;;;;;;;;;;;;;;;7364258;19;1861;-69
2022/12/20 11:27:20;;;;;;;;;;;;;;;;;;7369511;19;862;-68
2022/12/20 11:29:48;;;;;;;;;;;;;;;;;;7365708;19;1342;-69
2022/12/20 11:32:17;;;;;;;;;;;;;;;;;;7368815;19;816;-66
2022/12/20 11:34:45;;;;;;;;;;;;;;;;;;7368585;19;946;-68
2022/12/20 11:37:14;;;;;;;;;;;;;;;;;;7367578;19;912;-67
2022/12/20 11:39:42;;;;;;;;;;;;;;;;;;7363090;19;1325;-66
2022/12/20 11:42:10;;;;;;;;;;;;;;;;;;7367340;19;807;-68
2022/12/20 11:44:38;;;;;;;;;;;;;;;;;;7364693;19;1846;-69
2022/12/20 11:47:06;;;;;;;;;;;;;;;;;;7371036;19;1872;-68
2022/12/20 11:49:34;;;;;;;;;;;;;;;;;;7363634;19;1388;-67
2022/12/20 11:52:03;;;;;;;;;;;;;;;;;;7366763;19;851;-67
2022/12/20 11:54:31;;;;;;;;;;;;;;;;;;7368191;19;870;-66
2022/12/20 11:56:59;;;;;;;;;;;;;;;;;;7367505;19;771;-67
2022/12/20 11:59:27;;;;;;;;;;;;;;;;;;7364755;19;1848;-67
2022/12/20 12:01:56;;;;;;;;;;;;;;;;;;7366200;19;804;-69
2022/12/20 12:04:24;;;;;;;;;;;;;;;;;;7364594;19;1852;-68
2022/12/20 12:06:52;;;;;;;;;;;;;;;;;;7367172;19;1094;-67
2022/12/20 12:09:21;;;;;;;;;;;;;;;;;;7363640;19;1337;-67
2022/12/20 12:11:49;;;;;;;;;;;;;;;;;;7366591;19;2371;-68
2022/12/20 12:14:17;;;;;;;;;;;;;;;;;;7365526;19;884;-67
2022/12/20 12:16:46;;;;;;;;;;;;;;;;;;7364510;19;794;-68
2022/12/20 12:19:14;;;;;;;;;;;;;;;;;;7363115;19;1337;-66
2022/12/20 12:21:43;;;;;;;;;;;;;;;;;;7366829;19;1875;-68
2022/12/20 12:24:11;;;;;;;;;;;;;;;;;;7371051;19;1838;-66
2022/12/20 12:26:39;;;;;;;;;;;;;;;;;;7372723;19;815;-67
2022/12/20 12:29:08;;;;;;;;;;;;;;;;;;7370362;19;1432;-65
2022/12/20 12:31:36;;;;;;;;;;;;;;;;;;7371655;19;803;-66
2022/12/20 12:34:04;;;;;;;;;;;;;;;;;;7371551;19;815;-65
2022/12/20 12:36:32;;;;;;;;;;;;;;;;;;7371744;19;809;-64
2022/12/20 12:39:00;;;;;;;;;;;;;;;;;;7369347;19;1337;-66
2022/12/20 12:41:28;;;;;;;;;;;;;;;;;;7374593;19;1839;-67
2022/12/20 12:43:56;;;;;;;;;;;;;;;;;;7371342;19;1905;-66
2022/12/20 12:46:25;;;;;;;;;;;;;;;;;;7369551;19;893;-65
2022/12/20 12:48:53;;;;;;;;;;;;;;;;;;7367025;19;1354;-64
2022/12/20 12:51:21;;;;;;;;;;;;;;;;;;7370062;19;795;-64
2022/12/20 12:53:49;;;;;;;;;;;;;;;;;;7370169;19;813;-65
2022/12/20 12:56:18;;;;;;;;;;;;;;;;;;7370205;19;847;-64
2022/12/20 12:58:46;;;;;;;;;;;;;;;;;;7368822;19;1325;-67
2022/12/20 13:01:14;;;;;;;;;;;;;;;;;;7370673;19;811;-66
2022/12/20 13:03:42;;;;;;;;;;;;;;;;;;7370181;19;1855;-69
2022/12/20 13:06:10;;;;;;;;;;;;;;;;;;7369840;19;792;-67
2022/12/20 13:08:39;;;;;;;;;;;;;;;;;;7368228;19;1273;-67
2022/12/20 13:11:07;;;;;;;;;;;;;;;;;;7373390;19;1864;-63
2022/12/20 13:13:35;;;;;;;;;;;;;;;;;;7369747;19;803;-64
2022/12/20 13:16:03;;;;;;;;;;;;;;;;;;7371242;19;1339;-65
2022/12/20 13:18:31;;;;;;;;;;;;;;;;;;7367161;19;1251;-64
2022/12/20 13:20:59;;;;;;;;;;;;;;;;;;7370214;19;1894;-65
2022/12/20 13:23:27;;;;;;;;;;;;;;;;;;7368178;19;1834;-67
2022/12/20 13:25:56;;;;;;;;;;;;;;;;;;7367210;19;818;-68
2022/12/20 13:28:24;;;;;;;;;;;;;;;;;;7367724;19;1272;-65
2022/12/20 13:30:52;;;;;;;;;;;;;;;;;;7372005;19;1816;-65
2022/12/20 13:33:22;;;;;;;;;;;;;;;;;;7368656;19;839;-64
2022/12/20 13:35:50;;;;;;;;;;;;;;;;;;7370749;19;1083;-64
2022/12/20 13:38:18;;;;;;;;;;;;;;;;;;7368280;19;1274;-65
2022/12/20 13:40:47;;;;;;;;;;;;;;;;;;7369784;19;1834;-64
2022/12/20 13:43:16;;;;;;;;;;;;;;;;;;7369973;19;857;-63
2022/12/20 13:45:44;;;;;;;;;;;;;;;;;;7366589;19;1841;-63
2022/12/20 13:48:13;;;;;;;;;;;;;;;;;;7368388;19;1302;-63
2022/12/20 13:50:41;;;;;;;;;;;;;;;;;;7369710;19;834;-64
2022/12/20 13:53:09;;;;;;;;;;;;;;;;;;7372763;19;2223;-63
2022/12/20 13:55:37;;;;;;;;;;;;;;;;;;7369258;19;826;-64
2022/12/20 13:58:05;;;;;;;;;;;;;;;;;;7367142;19;1274;-64
2022/12/20 14:00:34;;;;;;;;;;;;;;;;;;7367850;19;811;-63
2022/12/20 14:03:02;;;;;;;;;;;;;;;;;;7372367;19;2062;-65
2022/12/20 14:05:30;;;;;;;;;;;;;;;;;;7369631;19;1894;-65
2022/12/20 14:07:58;;;;;;;;;;;;;;;;;;7368143;19;1271;-65
2022/12/20 14:10:27;;;;;;;;;;;;;;;;;;7368565;19;890;-64
2022/12/20 14:12:55;;;;;;;;;;;;;;;;;;7372598;19;1842;-64
2022/12/20 14:15:23;;;;;;;;;;;;;;;;;;7367827;19;848;-62
2022/12/20 14:17:52;;;;;;;;;;;;;;;;;;7365147;19;1275;-63
2022/12/20 14:20:20;;;;;;;;;;;;;;;;;;7367254;19;851;-63
2022/12/20 14:22:48;;;;;;;;;;;;;;;;;;7371731;19;1826;-63
2022/12/20 14:25:16;;;;;;;;;;;;;;;;;;7365797;19;1830;-64
2022/12/20 14:27:44;;;;;;;;;;;;;;;;;;7366696;19;1703;-63
2022/12/20 14:30:12;;;;;;;;;;;;;;;;;;7371691;19;2198;-63
2022/12/20 14:32:41;;;;;;;;;;;;;;;;;;7370434;19;1829;-65
2022/12/20 14:35:09;;;;;;;;;;;;;;;;;;7367690;19;874;-64
2022/12/20 14:37:37;;;;;;;;;;;;;;;;;;7366869;19;1279;-64
2022/12/20 14:40:06;;;;;;;;;;;;;;;;;;7367384;19;779;-63
2022/12/20 14:42:34;;;;;;;;;;;;;;;;;;7370568;19;1886;-63
2022/12/20 14:45:02;;;;;;;;;;;;;;;;;;7367857;19;1841;-64
2022/12/20 14:47:30;;;;;;;;;;;;;;;;;;7367421;19;787;-64
2022/12/20 14:49:58;;;;;;;;;;;;;;;;;;7366076;19;826;-64
2022/12/20 14:52:26;;;;;;;;;;;;;;;;;;7369061;19;1887;-62
2022/12/20 14:54:55;;;;;;;;;;;;;;;;;;7367600;19;803;-64
2022/12/20 14:57:23;;;;;;;;;;;;;;;;;;7366892;19;798;-64
2022/12/20 14:59:51;;;;;;;;;;;;;;;;;;7363394;19;1321;-63
2022/12/20 15:02:19;;;;;;;;;;;;;;;;;;7370045;19;1832;-63
2022/12/20 15:04:51;;;;;;;;;;;;;;;;;;7363641;19;1857;-68
2022/12/20 15:07:19;;;;;;;;;;;;;;;;;;7365358;19;828;-65
2022/12/20 15:09:47;;;;;;;;;;;;;;;;;;7363022;19;1289;-63
2022/12/20 15:12:15;;;;;;;;;;;;;;;;;;7367482;19;1664;-63
2022/12/20 15:14:43;;;;;;;;;;;;;;;;;;7366650;19;798;-63
2022/12/20 15:17:12;;;;;;;;;;;;;;;;;;7366753;19;827;-64
2022/12/20 15:19:40;;;;;;;;;;;;;;;;;;7363287;19;1350;-64
2022/12/20 15:22:08;;;;;;;;;;;;;;;;;;7369050;19;1821;-66
2022/12/20 15:24:36;;;;;;;;;;;;;;;;;;7369516;19;1881;-64
2022/12/20 15:27:04;;;;;;;;;;;;;;;;;;7365791;19;791;-64
2022/12/20 15:29:32;;;;;;;;;;;;;;;;;;7363405;19;1372;-64
2022/12/20 15:32:01;;;;;;;;;;;;;;;;;;7369620;19;1857;-64
2022/12/20 15:34:29;;;;;;;;;;;;;;;;;;7366863;19;774;-63
2022/12/20 15:36:59;;;;;;;;;;;;;;;;;;7365924;19;787;-65
2022/12/20 15:39:27;;;;;;;;;;;;;;;;;;7363084;19;1355;-64
2022/12/20 15:41:55;;;;;;;;;;;;;;;;;;7366343;19;807;-63
2022/12/20 15:44:23;;;;;;;;;;;;;;;;;;7368004;19;1880;-67
2022/12/20 15:46:51;;;;;;;;;;;;;;;;;;7365778;19;826;-64
2022/12/20 15:49:20;;;;;;;;;;;;;;;;;;7362010;19;1255;-64
2022/12/20 15:51:48;;;;;;;;;;;;;;;;;;7364619;19;806;-63
2022/12/20 15:54:16;;;;;;;;;;;;;;;;;;7365107;19;854;-65
2022/12/20 15:56:44;;;;;;;;;;;;;;;;;;7369728;19;1923;-65
2022/12/20 15:59:13;;;;;;;;;;;;;;;;;;7369558;19;1207;-63
2022/12/20 16:01:41;;;;;;;;;;;;;;;;;;7370660;19;1870;-67
2022/12/20 16:04:09;;;;;;;;;;;;;;;;;;7369618;19;1837;-66
2022/12/20 16:06:37;;;;;;;;;;;;;;;;;;7370629;19;829;-66
2022/12/20 16:09:06;;;;;;;;;;;;;;;;;;7369672;19;1894;-64
2022/12/20 16:11:34;;;;;;;;;;;;;;;;;;7369341;19;823;-66
2022/12/20 16:14:02;;;;;;;;;;;;;;;;;;7373512;19;1866;-66
2022/12/20 16:16:30;;;;;;;;;;;;;;;;;;7369655;19;889;-65
2022/12/20 16:18:58;;;;;;;;;;;;;;;;;;7371015;19;1878;-66
2022/12/20 16:21:26;;;;;;;;;;;;;;;;;;7370649;19;845;-64
2022/12/20 16:23:55;;;;;;;;;;;;;;;;;;7370357;19;713;-64
2022/12/20 16:26:23;;;;;;;;;;;;;;;;;;7368692;19;1834;-64
2022/12/20 16:28:51;;;;;;;;;;;;;;;;;;7369147;19;1282;-65
2022/12/20 16:31:19;;;;;;;;;;;;;;;;;;7370062;19;815;-64
2022/12/20 16:33:48;;;;;;;;;;;;;;;;;;7370279;19;858;-63
2022/12/20 16:36:16;;;;;;;;;;;;;;;;;;7370769;19;829;-64
2022/12/20 16:38:44;;;;;;;;;;;;;;;;;;7368737;19;1271;-65
2022/12/20 16:41:12;;;;;;;;;;;;;;;;;;7370272;19;779;-66
2022/12/20 16:43:40;;;;;;;;;;;;;;;;;;7369024;19;778;-67
2022/12/20 16:46:08;;;;;;;;;;;;;;;;;;7369946;19;1903;-66
2022/12/20 16:51:20;;;;;;;;;;;;;;;;;;7372957;19;999;-64
2022/12/20 16:53:48;;;;;;;;;;;;;;;;;;7375693;19;735;-64
2022/12/20 16:56:16;;;;;;;;;;;;;;;;;;7376176;19;891;-62
2022/12/20 16:58:45;;;;;;;;;;;;;;;;;;7365278;19;1290;-64
2022/12/20 17:01:13;;;;;;;;;;;;;;;;;;7368704;19;1860;-64
2022/12/20 17:03:41;;;;;;;;;;;;;;;;;;7369408;19;817;-62
2022/12/20 17:06:10;;;;;;;;;;;;;;;;;;7367255;19;1845;-63
2022/12/20 17:08:38;;;;;;;;;;;;;;;;;;7366558;19;1297;-65
2022/12/20 17:11:06;;;;;;;;;;;;;;;;;;7369388;19;752;-63
2022/12/20 17:13:34;;;;;;;;;;;;;;;;;;7370739;19;795;-64
2022/12/20 17:16:02;;;;;;;;;;;;;;;;;;7369286;19;845;-63
2022/12/20 17:18:31;;;;;;;;;;;;;;;;;;7368168;19;1286;-63
2022/12/20 17:20:59;;;;;;;;;;;;;;;;;;7370185;19;786;-63
2022/12/20 17:23:27;;;;;;;;;;;;;;;;;;7368751;19;875;-63
2022/12/20 17:25:55;;;;;;;;;;;;;;;;;;7367718;19;1841;-63
2022/12/20 17:28:25;;;;;;;;;;;;;;;;;;7367822;19;1288;-65
2022/12/20 17:30:53;;;;;;;;;;;;;;;;;;7372851;19;2109;-62
2022/12/20 17:33:21;;;;;;;;;;;;;;;;;;7368914;19;886;-61